Dodge City, KS

12:24 PM CDT on May 23, 2015 (GMT -0500)
Dodge City Regional | | Change Station
CLOSE
Current Station
Airport
Location: Dodge City,
Elevation: 2592 ft
Nearby Weather Stations

Elev 2592 ft 37.76 °N, 99.97 °W | Updated 32 minutes ago

Rain
Rain
55 °F
Feels Like 55 °F
N
17
Wind Variable Wind from East

Today
High -- | Low -- °F
--% Chance of Precip.
Yesterday
High -- | Low -- °F
Precip. -- in
6:24 AM 8:49 PM
Waxing Crescent, 31% visible
Pressure 30.01 in
Visibility 7.0 miles
Clouds Overcast 9000 ft
Dew Point 53 °F
Humidity 93%
Rainfall 0.36 in
Snow Depth Not available.
UV 3 out of 12
Pollen 6.80 out of 12
Air Quality Not available.
Flu Activity No Activity
METAR KDDC 231652Z AUTO 09015KT 7SM -RA OVC090 13/12 A3004 RMK AO2 PRESFR SLP163 P0007 T01280117

More Conditions Fewer Conditions

Pressure 30.01 in
Visibility 7.0 miles
Clouds Overcast 9000 ft
Dew Point 53 °F
Humidity 93%
Rainfall 0.36 in
Snow Depth Not available.
UV 3 out of 12
Pollen 6.80 out of 12
Air Quality Not available.
Flu Activity No Activity
METAR KDDC 231652Z AUTO 09015KT 7SM -RA OVC090 13/12 A3004 RMK AO2 PRESFR SLP163 P0007 T01280117

More Conditions Fewer Conditions

10-Day Weather Forecast

Almanac

Astronomy

May. 23, 2015 Rise Set
Actual Time
Civil Twilight
Nautical Twilight
Astronomical Twilight
Moon
Length of Visible Light
Length of Day
Tomorrow will be .
, % of the Moon is Illuminated

Today's Extremes

State Highs State Lows

Community

WunderPhotos

Upload Photos

1,823,523 photos uploaded!

WunderBlogs® & News

Nearby

Air Quality

  Air Quality AQ Index Pollutant
Not available.

Snow Depth

Station Depth Elevation

Earthquake Activity

City Distance Mag. Time & Date
Minimum magnitude displayed is 2.5.

Coastal Water Temperatures

Place Temperature

Stations

Nearby Weather Stations

Station Location Temp. Windchill Dew Point Humidity Wind Precip. Elev Updated Type